Time;durP1;ratioP1;P1;durP2;ratioP2;P2;SDS_P1;SDS_P2;PMS_P1;PMS_P2;Temp;Humidity;BMP_temperature;BMP_pressure;BME280_temperature;BME280_humidity;BME280_pressure;Samples;Min_cycle;Max_cycle;Signal;HPM_P1;HPM_P2
2023/01/22 00:00:33;;;;;;;8.40;5.30;;;1.90;99.90;;;;;;5027109;28;20030;-72
2023/01/22 00:02:59;;;;;;;7.53;4.88;;;1.90;99.90;;;;;;5025867;28;20033;-73
2023/01/22 00:05:25;;;;;;;8.73;5.43;;;1.90;99.90;;;;;;5027922;28;20029;-73
2023/01/22 00:07:51;;;;;;;8.95;5.97;;;1.90;99.90;;;;;;5029469;28;20091;-73
2023/01/22 00:10:16;;;;;;;7.53;5.07;;;1.90;99.90;;;;;;5027912;28;20041;-73
2023/01/22 00:12:42;;;;;;;7.10;5.03;;;1.90;99.90;;;;;;5028466;28;20022;-72
2023/01/22 00:15:08;;;;;;;10.07;5.85;;;1.90;99.90;;;;;;5027663;28;20417;-74
2023/01/22 00:17:34;;;;;;;8.55;5.50;;;1.90;99.90;;;;;;5027848;28;20037;-74
2023/01/22 00:20:00;;;;;;;8.60;5.20;;;1.90;99.90;;;;;;5030028;28;20034;-74
2023/01/22 00:22:26;;;;;;;10.75;5.60;;;1.90;99.90;;;;;;5030477;28;20087;-72
2023/01/22 00:24:51;;;;;;;8.52;5.32;;;1.90;99.90;;;;;;5045907;28;20032;-73
2023/01/22 00:27:17;;;;;;;8.00;5.28;;;1.90;99.90;;;;;;5028410;28;20448;-73
2023/01/22 00:29:43;;;;;;;10.68;5.00;;;1.90;99.90;;;;;;5026197;28;20148;-73
2023/01/22 00:32:09;;;;;;;7.15;5.45;;;1.90;99.90;;;;;;5026517;28;20081;-72
2023/01/22 00:34:35;;;;;;;10.13;5.18;;;1.80;99.90;;;;;;5027864;28;20051;-72
2023/01/22 00:37:00;;;;;;;8.23;5.47;;;1.80;99.90;;;;;;5045097;28;20025;-72
2023/01/22 00:39:26;;;;;;;8.20;5.63;;;1.80;99.90;;;;;;5029942;28;20105;-72
2023/01/22 00:41:52;;;;;;;8.68;5.63;;;1.80;99.90;;;;;;5044863;28;20025;-72
2023/01/22 00:44:18;;;;;;;6.95;5.15;;;1.80;99.90;;;;;;5026567;28;20087;-73
2023/01/22 00:46:44;;;;;;;10.10;5.32;;;1.80;99.90;;;;;;5027839;28;20037;-73
2023/01/22 00:49:11;;;;;;;7.85;5.40;;;1.80;99.90;;;;;;5027993;28;20040;-74
2023/01/22 00:51:38;;;;;;;8.45;5.18;;;1.80;99.90;;;;;;5029585;28;20497;-73
2023/01/22 00:54:04;;;;;;;8.32;5.47;;;1.90;99.90;;;;;;5062362;28;20033;-73
2023/01/22 00:56:29;;;;;;;12.00;5.88;;;1.80;99.90;;;;;;5029469;28;20052;-73
2023/01/22 00:58:55;;;;;;;7.57;5.32;;;1.80;99.90;;;;;;5028347;28;20812;-73
2023/01/22 01:01:22;;;;;;;8.57;5.57;;;1.80;99.90;;;;;;5028381;28;20030;-73
2023/01/22 01:03:47;;;;;;;7.60;5.07;;;1.90;99.90;;;;;;5042338;28;20033;-73
2023/01/22 01:06:17;;;;;;;7.25;5.35;;;1.80;99.90;;;;;;5028197;28;20029;-73
2023/01/22 01:08:43;;;;;;;9.07;5.60;;;1.80;99.90;;;;;;5028184;28;20124;-74
2023/01/22 01:11:20;;;;;;;9.73;5.57;;;1.80;99.90;;;;;;5012661;28;20420;-73
2023/01/22 01:13:46;;;;;;;8.77;5.05;;;1.80;99.90;;;;;;5060414;28;20359;-73
2023/01/22 01:16:18;;;;;;;7.07;5.20;;;1.80;99.90;;;;;;5029792;28;20025;-73
2023/01/22 01:18:44;;;;;;;10.73;6.13;;;1.80;99.90;;;;;;5029877;28;20033;-73
2023/01/22 01:21:11;;;;;;;11.07;5.80;;;1.80;99.90;;;;;;5027717;28;20033;-73
2023/01/22 01:23:37;;;;;;;9.77;5.95;;;1.80;99.90;;;;;;5028428;28;20044;-72
2023/01/22 01:26:08;;;;;;;9.45;5.22;;;1.80;99.90;;;;;;5026972;28;20072;-73
2023/01/22 01:28:35;;;;;;;7.80;5.30;;;1.80;99.90;;;;;;5045299;28;20033;-74
2023/01/22 01:31:05;;;;;;;10.20;5.00;;;1.80;99.90;;;;;;5025264;28;20060;-73
2023/01/22 01:33:31;;;;;;;7.50;5.18;;;1.80;99.90;;;;;;5044721;28;20049;-73
2023/01/22 01:36:06;;;;;;;9.73;5.63;;;1.80;99.90;;;;;;5028289;28;20460;-73
2023/01/22 01:38:32;;;;;;;8.35;5.07;;;1.80;99.90;;;;;;5025718;28;20055;-72
2023/01/22 01:40:58;;;;;;;9.50;5.65;;;1.80;99.90;;;;;;5026720;28;20502;-72
2023/01/22 01:43:25;;;;;;;10.80;5.35;;;1.80;99.90;;;;;;5027688;28;20033;-72
2023/01/22 01:45:50;;;;;;;9.30;5.13;;;1.80;99.90;;;;;;5026647;28;20036;-73
2023/01/22 01:48:29;;;;;;;7.78;5.28;;;1.80;99.90;;;;;;5028844;28;20025;-72
2023/01/22 01:51:03;;;;;;;9.30;5.05;;;1.80;99.90;;;;;;5043337;28;20068;-74
2023/01/22 01:53:30;;;;;;;7.90;4.72;;;1.80;99.90;;;;;;5026676;28;20528;-73
2023/01/22 01:55:57;;;;;;;9.45;5.35;;;1.80;99.90;;;;;;5026159;28;20034;-73
2023/01/22 01:58:27;;;;;;;6.57;4.70;;;1.80;99.90;;;;;;5043185;28;20025;-73
2023/01/22 02:00:58;;;;;;;11.88;5.57;;;1.80;99.90;;;;;;5028587;28;20044;-73
2023/01/22 02:03:24;;;;;;;7.53;4.85;;;1.80;99.90;;;;;;5026142;28;20029;-73
2023/01/22 02:05:50;;;;;;;7.55;4.78;;;1.80;99.90;;;;;;5041561;28;20100;-73
2023/01/22 02:08:16;;;;;;;7.82;5.10;;;1.80;99.90;;;;;;5024881;28;20156;-73
2023/01/22 02:10:42;;;;;;;9.00;5.38;;;1.80;99.90;;;;;;5025749;28;20037;-72
2023/01/22 02:13:14;;;;;;;8.68;5.55;;;1.80;99.90;;;;;;5027997;28;20029;-73
2023/01/22 02:15:41;;;;;;;8.98;5.22;;;1.80;99.90;;;;;;5024111;28;20025;-72
2023/01/22 02:18:07;;;;;;;8.57;5.80;;;1.80;99.90;;;;;;5028401;28;20032;-73
2023/01/22 02:20:37;;;;;;;9.48;5.40;;;1.80;99.90;;;;;;5053415;28;20502;-72
2023/01/22 02:23:03;;;;;;;7.18;4.70;;;1.80;99.90;;;;;;5023885;28;20036;-73
2023/01/22 02:25:29;;;;;;;6.47;5.07;;;1.80;99.90;;;;;;5040564;28;20112;-73
2023/01/22 02:27:55;;;;;;;8.75;5.22;;;1.80;99.90;;;;;;5041592;28;20585;-73
2023/01/22 02:30:21;;;;;;;8.27;4.75;;;1.80;99.90;;;;;;5023604;28;20447;-74
2023/01/22 02:32:47;;;;;;;7.78;5.13;;;1.80;99.90;;;;;;5041707;28;20108;-73
2023/01/22 02:35:13;;;;;;;8.63;5.57;;;1.80;99.90;;;;;;5037404;28;20056;-73
2023/01/22 02:37:38;;;;;;;9.00;5.00;;;1.80;99.90;;;;;;5027038;28;20036;-71
2023/01/22 02:40:05;;;;;;;7.63;5.30;;;1.80;99.90;;;;;;5040843;28;20115;-73
2023/01/22 02:42:30;;;;;;;7.15;5.13;;;1.80;99.90;;;;;;5026349;28;20501;-72
2023/01/22 02:44:56;;;;;;;8.10;4.78;;;1.80;99.90;;;;;;5026529;28;20029;-73
2023/01/22 02:47:22;;;;;;;9.10;5.20;;;1.80;99.90;;;;;;5025764;28;20060;-73
2023/01/22 02:49:47;;;;;;;7.22;4.78;;;1.80;99.90;;;;;;5023931;28;20043;-72
2023/01/22 02:52:13;;;;;;;7.80;5.20;;;1.80;99.90;;;;;;5026843;28;20041;-73
2023/01/22 02:54:39;;;;;;;10.95;6.18;;;1.70;99.90;;;;;;5024427;28;21502;-73
2023/01/22 02:57:04;;;;;;;8.00;4.90;;;1.70;99.90;;;;;;5027722;28;20382;-73
2023/01/22 02:59:30;;;;;;;10.25;5.32;;;1.80;99.90;;;;;;5026541;28;20021;-73
2023/01/22 03:01:56;;;;;;;7.65;5.10;;;1.80;99.90;;;;;;5025434;28;20037;-70
2023/01/22 03:04:22;;;;;;;7.88;4.85;;;1.80;99.90;;;;;;5027619;28;20044;-74
2023/01/22 03:06:48;;;;;;;7.60;5.03;;;1.80;99.90;;;;;;5050089;28;20061;-71
2023/01/22 03:09:16;;;;;;;10.73;5.70;;;1.80;99.90;;;;;;5025720;28;20040;-72
2023/01/22 03:11:44;;;;;;;6.55;4.60;;;1.80;99.90;;;;;;5026623;28;20033;-72
2023/01/22 03:22:25;;;;;;;11.48;5.40;;;1.80;99.90;;;;;;5027877;28;20409;-71
2023/01/22 03:24:51;;;;;;;9.23;5.20;;;1.80;99.90;;;;;;5040366;28;20037;-74
2023/01/22 03:27:23;;;;;;;11.30;5.32;;;1.80;99.90;;;;;;5024834;28;20029;-75
2023/01/22 03:29:49;;;;;;;9.20;5.70;;;1.90;99.90;;;;;;5026120;28;20481;-71
2023/01/22 03:32:15;;;;;;;9.75;5.10;;;1.90;99.90;;;;;;5027045;28;20048;-72
2023/01/22 03:34:44;;;;;;;8.82;4.60;;;1.90;99.90;;;;;;5024240;28;20060;-72
2023/01/22 03:37:13;;;;;;;8.32;5.10;;;1.80;99.90;;;;;;5027166;28;20501;-72
2023/01/22 03:39:39;;;;;;;7.57;5.15;;;1.90;99.90;;;;;;5027160;28;20029;-71
2023/01/22 03:42:06;;;;;;;10.32;4.90;;;1.90;99.90;;;;;;5045226;28;20059;-73
2023/01/22 03:44:31;;;;;;;7.45;4.70;;;1.80;99.90;;;;;;5031118;28;20387;-72
2023/01/22 03:46:57;;;;;;;9.02;4.93;;;1.80;99.90;;;;;;5027758;28;20033;-72
2023/01/22 03:49:23;;;;;;;7.53;4.82;;;1.90;99.90;;;;;;5028690;28;20473;-73
2023/01/22 03:51:49;;;;;;;8.48;6.00;;;1.80;99.90;;;;;;5030266;28;20068;-73
2023/01/22 03:54:15;;;;;;;7.68;4.78;;;1.80;99.90;;;;;;5029634;28;20025;-73
2023/01/22 03:56:42;;;;;;;8.35;5.18;;;1.90;99.90;;;;;;5030873;28;20017;-72
2023/01/22 03:59:08;;;;;;;9.18;4.45;;;1.90;99.90;;;;;;5027393;28;20025;-71
2023/01/22 04:01:34;;;;;;;8.77;5.13;;;1.90;99.90;;;;;;5029628;28;20056;-73
2023/01/22 04:04:00;;;;;;;9.88;5.32;;;1.90;99.90;;;;;;5031650;28;20037;-73
2023/01/22 04:06:27;;;;;;;7.85;4.45;;;1.90;99.90;;;;;;5029755;28;20108;-73
2023/01/22 04:08:54;;;;;;;11.25;5.43;;;1.90;99.90;;;;;;5042827;28;20048;-73
2023/01/22 04:11:21;;;;;;;8.00;4.90;;;1.90;99.90;;;;;;5029655;28;20056;-73
2023/01/22 04:13:47;;;;;;;11.95;5.53;;;1.90;99.90;;;;;;5028749;28;20075;-72
2023/01/22 04:16:13;;;;;;;10.90;4.80;;;1.90;99.90;;;;;;5031219;28;20041;-72
2023/01/22 04:18:40;;;;;;;8.25;5.20;;;1.90;99.90;;;;;;5044073;28;20021;-73
2023/01/22 04:21:05;;;;;;;7.53;4.95;;;1.90;99.90;;;;;;5029330;28;20048;-73
2023/01/22 04:23:31;;;;;;;8.50;4.70;;;2.00;99.90;;;;;;5026355;28;20029;-72
2023/01/22 04:25:57;;;;;;;9.68;4.82;;;1.90;99.90;;;;;;5028997;28;20026;-74
2023/01/22 04:28:23;;;;;;;9.02;4.72;;;2.00;99.90;;;;;;5043701;28;20045;-73
2023/01/22 04:30:51;;;;;;;9.15;4.78;;;2.00;99.90;;;;;;5042571;28;20034;-75
2023/01/22 04:33:17;;;;;;;9.65;4.72;;;2.00;99.90;;;;;;5032591;28;20378;-71
2023/01/22 04:35:43;;;;;;;8.98;4.50;;;1.90;99.90;;;;;;5029114;28;20029;-71
2023/01/22 04:38:12;;;;;;;10.85;4.53;;;2.00;99.90;;;;;;5061457;28;20033;-71
2023/01/22 04:40:38;;;;;;;8.07;4.50;;;2.00;99.90;;;;;;5026537;28;20025;-71
2023/01/22 04:43:05;;;;;;;8.95;4.80;;;1.90;99.90;;;;;;5044160;28;20497;-72
2023/01/22 04:45:32;;;;;;;8.73;4.63;;;2.00;99.90;;;;;;5048346;28;20040;-72
2023/01/22 04:47:58;;;;;;;10.70;4.80;;;2.00;99.90;;;;;;5031921;28;20033;-74
2023/01/22 04:50:27;;;;;;;11.75;4.63;;;2.00;99.90;;;;;;5032826;28;20062;-73
2023/01/22 04:52:54;;;;;;;8.13;4.30;;;2.00;99.90;;;;;;5061597;28;20029;-73
2023/01/22 04:55:21;;;;;;;9.60;5.18;;;1.90;99.90;;;;;;5046557;28;20037;-71
2023/01/22 04:57:47;;;;;;;6.68;4.10;;;2.00;99.90;;;;;;5030419;28;20076;-73
2023/01/22 05:00:14;;;;;;;9.68;4.60;;;1.90;99.90;;;;;;5039477;28;20068;-72
2023/01/22 05:02:40;;;;;;;9.50;4.57;;;2.00;99.90;;;;;;5027067;28;20094;-73
2023/01/22 05:05:07;;;;;;;8.48;4.70;;;2.00;99.90;;;;;;5026009;28;20037;-73
2023/01/22 05:07:33;;;;;;;7.05;4.13;;;2.00;99.90;;;;;;5029160;28;20057;-74
2023/01/22 05:09:59;;;;;;;8.40;4.50;;;2.00;99.90;;;;;;5060111;28;20061;-71
2023/01/22 05:12:24;;;;;;;7.70;4.53;;;2.00;99.90;;;;;;5029788;28;20037;-72
2023/01/22 05:14:50;;;;;;;8.43;4.47;;;2.00;99.90;;;;;;5029664;28;20104;-72
2023/01/22 05:17:16;;;;;;;10.30;4.97;;;2.00;99.90;;;;;;5045673;28;20065;-73
2023/01/22 05:19:41;;;;;;;7.00;4.38;;;2.00;99.90;;;;;;5042782;28;20029;-73
2023/01/22 05:22:07;;;;;;;8.38;4.38;;;2.00;99.90;;;;;;5029421;28;20029;-74
2023/01/22 05:24:33;;;;;;;11.30;5.00;;;2.00;99.90;;;;;;5030414;28;20029;-73
2023/01/22 05:26:59;;;;;;;7.40;4.68;;;2.00;99.90;;;;;;5029370;28;20037;-73
2023/01/22 05:29:26;;;;;;;8.95;4.85;;;2.00;99.90;;;;;;5026242;28;20033;-72
2023/01/22 05:31:56;;;;;;;7.43;4.00;;;2.00;99.90;;;;;;5026897;28;20033;-72
2023/01/22 05:34:23;;;;;;;7.88;4.40;;;2.00;99.90;;;;;;5031500;28;20363;-73
2023/01/22 05:36:48;;;;;;;9.05;5.03;;;2.00;99.90;;;;;;5030126;28;20100;-73
2023/01/22 05:39:16;;;;;;;8.60;4.60;;;2.00;99.90;;;;;;5025745;28;20117;-74
2023/01/22 05:41:42;;;;;;;6.85;4.57;;;2.00;99.90;;;;;;5027610;28;20049;-73
2023/01/22 05:44:10;;;;;;;8.13;4.57;;;2.00;99.90;;;;;;5028915;28;20034;-72
2023/01/22 05:46:36;;;;;;;9.52;4.88;;;2.00;99.90;;;;;;5028558;28;20053;-73
2023/01/22 05:49:02;;;;;;;11.70;4.65;;;2.00;99.90;;;;;;5027181;28;20060;-73
2023/01/22 05:51:28;;;;;;;8.18;4.22;;;2.00;99.90;;;;;;5042206;28;20099;-73
2023/01/22 05:53:55;;;;;;;7.88;4.43;;;2.00;99.90;;;;;;5007781;28;20034;-74
2023/01/22 05:56:21;;;;;;;9.95;5.35;;;2.00;99.90;;;;;;5044220;28;20026;-74
2023/01/22 05:58:46;;;;;;;9.75;4.43;;;2.00;99.90;;;;;;5046198;28;20442;-74
2023/01/22 06:01:12;;;;;;;7.63;4.20;;;2.00;99.90;;;;;;5029692;28;20124;-73
2023/01/22 06:03:38;;;;;;;14.38;4.70;;;2.00;99.90;;;;;;5029123;28;20033;-73
2023/01/22 06:06:06;;;;;;;7.93;4.57;;;2.10;99.90;;;;;;5027582;28;20611;-72
2023/01/22 06:08:32;;;;;;;7.85;4.70;;;2.10;99.90;;;;;;5029391;28;20037;-74
2023/01/22 06:11:03;;;;;;;7.03;4.53;;;2.00;99.90;;;;;;5045500;28;20033;-74
2023/01/22 06:13:29;;;;;;;;;;;2.00;99.90;;;;;;5030432;28;20067;-74
2023/01/22 06:15:55;;;;;;;8.30;4.68;;;2.00;99.90;;;;;;5045415;28;19971;-75
2023/01/22 06:18:23;;;;;;;10.57;4.78;;;2.00;99.90;;;;;;5030582;28;20155;-75
2023/01/22 06:20:49;;;;;;;8.80;4.60;;;2.10;99.90;;;;;;5045260;28;20040;-74
2023/01/22 06:23:16;;;;;;;10.05;4.53;;;2.10;99.90;;;;;;5021794;28;20029;-74
2023/01/22 06:25:42;;;;;;;9.63;4.60;;;2.00;99.90;;;;;;5032301;28;20025;-75
2023/01/22 06:28:07;;;;;;;10.25;5.10;;;2.10;99.90;;;;;;5064207;28;20048;-75
2023/01/22 06:30:34;;;;;;;12.10;5.65;;;2.10;99.90;;;;;;5029527;28;20413;-73
2023/01/22 06:33:00;;;;;;;12.15;4.65;;;2.10;99.90;;;;;;5023853;28;20615;-74
2023/01/22 06:35:26;;;;;;;8.68;4.75;;;2.10;99.90;;;;;;5027809;28;20120;-73
2023/01/22 06:37:51;;;;;;;8.88;4.97;;;2.10;99.90;;;;;;5026972;28;20107;-77
2023/01/22 06:40:17;;;;;;;11.90;5.13;;;2.10;99.90;;;;;;5028786;28;20034;-72
2023/01/22 06:42:43;;;;;;;8.68;4.53;;;2.10;99.90;;;;;;5029794;28;20055;-75
2023/01/22 06:45:09;;;;;;;10.32;4.75;;;2.10;99.90;;;;;;5027971;28;20512;-72
2023/01/22 06:47:34;;;;;;;7.85;4.70;;;2.20;99.90;;;;;;5028174;28;20032;-71
2023/01/22 06:50:00;;;;;;;7.10;4.32;;;2.10;99.90;;;;;;5028147;28;20041;-72
2023/01/22 06:52:26;;;;;;;14.00;5.03;;;2.20;99.90;;;;;;5028066;28;20077;-74
2023/01/22 06:54:52;;;;;;;9.45;5.00;;;2.20;99.90;;;;;;5043028;28;20546;-74
2023/01/22 06:57:17;;;;;;;9.70;5.13;;;2.20;99.90;;;;;;5046010;28;20120;-75
2023/01/22 06:59:43;;;;;;;8.68;4.55;;;2.20;99.90;;;;;;5026292;28;20025;-75
2023/01/22 07:02:17;;;;;;;10.25;5.22;;;2.20;99.90;;;;;;5027258;28;20037;-77
2023/01/22 07:04:43;;;;;;;9.10;5.00;;;2.20;99.90;;;;;;5022910;28;20029;-74
2023/01/22 07:07:10;;;;;;;8.95;4.93;;;2.20;99.90;;;;;;5021596;28;20025;-76
2023/01/22 07:09:36;;;;;;;10.73;5.43;;;2.20;99.90;;;;;;5023999;28;20336;-74
2023/01/22 07:12:02;;;;;;;9.82;4.65;;;2.20;99.90;;;;;;5027185;28;20494;-73
2023/01/22 07:14:32;;;;;;;10.73;5.88;;;2.20;99.90;;;;;;5025136;28;20053;-75
2023/01/22 07:16:57;;;;;;;12.82;4.50;;;2.90;99.90;;;;;;5025130;28;20096;-76
2023/01/22 07:19:23;;;;;;;8.18;3.38;;;2.70;99.90;;;;;;5024483;28;20445;-75
2023/01/22 07:21:49;;;;;;;8.63;4.35;;;5.40;99.90;;;;;;5024195;28;20036;-74
2023/01/22 07:24:15;;;;;;;8.25;4.07;;;4.20;99.90;;;;;;5008242;28;20025;-74
2023/01/22 07:26:42;;;;;;;8.93;4.30;;;3.50;99.90;;;;;;5023868;28;20041;-76
2023/01/22 07:29:08;;;;;;;12.68;4.97;;;3.20;99.90;;;;;;5026109;28;20033;-72
2023/01/22 07:31:34;;;;;;;11.25;4.85;;;2.90;99.90;;;;;;5026002;28;20025;-76
2023/01/22 07:34:01;;;;;;;9.55;4.78;;;2.70;99.90;;;;;;5019161;28;20079;-74
2023/01/22 07:36:26;;;;;;;9.98;4.40;;;2.60;99.90;;;;;;5039350;28;20515;-74
2023/01/22 07:38:52;;;;;;;11.88;4.28;;;2.50;99.90;;;;;;5039175;28;20094;-74
2023/01/22 07:41:18;;;;;;;9.43;4.82;;;2.50;99.90;;;;;;5041179;28;20104;-74
2023/01/22 07:43:44;;;;;;;9.82;4.18;;;2.50;99.90;;;;;;5022909;28;20176;-75
2023/01/22 07:46:10;;;;;;;7.90;4.63;;;2.50;99.90;;;;;;5038277;28;20038;-75
2023/01/22 07:48:36;;;;;;;7.35;4.93;;;2.60;99.90;;;;;;5020930;28;20033;-73
2023/01/22 07:51:04;;;;;;;9.82;4.80;;;2.50;99.90;;;;;;5021425;28;20044;-74
2023/01/22 07:53:32;;;;;;;10.18;5.55;;;2.50;99.90;;;;;;5023493;28;20028;-73
2023/01/22 07:56:00;;;;;;;8.18;4.60;;;2.50;99.90;;;;;;5020898;28;20370;-76
2023/01/22 07:58:26;;;;;;;10.63;4.72;;;2.50;99.90;;;;;;5022660;28;20074;-75
2023/01/22 08:00:52;;;;;;;13.85;4.53;;;2.50;99.90;;;;;;5040278;28;20090;-77
2023/01/22 08:03:18;;;;;;;9.35;4.55;;;2.50;99.90;;;;;;5025713;28;20041;-76
2023/01/22 08:05:44;;;;;;;8.23;4.30;;;2.50;99.90;;;;;;5024394;28;20033;-76
2023/01/22 08:08:15;;;;;;;12.48;4.70;;;2.60;99.90;;;;;;5029708;28;20790;-75
2023/01/22 08:10:41;;;;;;;;;;;2.50;99.90;;;;;;5042825;28;20025;-76
2023/01/22 08:13:07;;;;;;;12.07;5.05;;;2.50;99.90;;;;;;5024695;28;19913;-74
2023/01/22 08:15:33;;;;;;;10.40;4.38;;;2.50;99.90;;;;;;5024480;28;20040;-73
2023/01/22 08:17:58;;;;;;;15.90;5.50;;;2.60;99.90;;;;;;5024502;28;20033;-73
2023/01/22 08:20:25;;;;;;;12.35;4.95;;;2.60;99.90;;;;;;5038124;28;20057;-76
2023/01/22 08:22:57;;;;;;;10.80;4.63;;;2.60;99.90;;;;;;5023091;28;20094;-75
2023/01/22 08:25:22;;;;;;;10.77;4.57;;;2.60;99.90;;;;;;5025170;28;20033;-75
2023/01/22 08:27:48;;;;;;;13.02;4.82;;;2.60;99.90;;;;;;5025874;28;20544;-75
2023/01/22 08:30:14;;;;;;;12.48;5.18;;;2.60;99.90;;;;;;5044928;28;20037;-75
2023/01/22 08:32:41;;;;;;;13.70;4.95;;;2.60;99.90;;;;;;5027388;28;20025;-75
2023/01/22 08:35:07;;;;;;;11.63;4.68;;;2.60;99.90;;;;;;5060412;28;20030;-75
2023/01/22 08:37:34;;;;;;;12.18;5.03;;;3.10;99.90;;;;;;5032950;28;20021;-75
2023/01/22 08:40:00;;;;;;;10.15;4.93;;;2.90;99.90;;;;;;5073350;28;20049;-75
2023/01/22 08:42:26;;;;;;;13.73;4.90;;;2.80;99.90;;;;;;5041973;28;20111;-75
2023/01/22 08:44:51;;;;;;;8.35;4.55;;;2.70;99.90;;;;;;5027187;28;20018;-74
2023/01/22 08:47:17;;;;;;;9.32;4.20;;;2.70;99.90;;;;;;5028343;28;20045;-72
2023/01/22 08:49:43;;;;;;;12.77;4.93;;;2.70;99.90;;;;;;5028480;28;20041;-73
2023/01/22 08:52:09;;;;;;;8.05;3.65;;;2.70;99.90;;;;;;5027842;28;20125;-75
2023/01/22 08:54:36;;;;;;;12.07;4.85;;;2.70;99.90;;;;;;5029207;28;20025;-75
2023/01/22 08:57:01;;;;;;;8.77;4.38;;;2.70;99.90;;;;;;5027736;28;20171;-74
2023/01/22 08:59:27;;;;;;;11.68;4.85;;;2.70;99.90;;;;;;5061248;28;20052;-73
2023/01/22 09:01:53;;;;;;;9.35;4.63;;;2.70;99.90;;;;;;5023853;28;20095;-74
2023/01/22 09:04:20;;;;;;;19.58;5.47;;;2.70;99.90;;;;;;5024962;28;20465;-75
2023/01/22 09:06:46;;;;;;;14.25;4.40;;;2.70;99.90;;;;;;5025611;28;20097;-75
2023/01/22 09:09:11;;;;;;;12.35;4.90;;;2.70;99.90;;;;;;5027362;28;20033;-75
2023/01/22 09:11:38;;;;;;;9.32;4.60;;;2.80;99.90;;;;;;5044754;28;20040;-74
2023/01/22 09:14:07;;;;;;;9.88;4.10;;;2.80;99.90;;;;;;5025178;28;20081;-74
2023/01/22 09:16:33;;;;;;;9.93;4.18;;;2.80;99.90;;;;;;5027858;28;20037;-76
2023/01/22 09:18:59;;;;;;;7.18;3.78;;;2.80;99.90;;;;;;5024407;28;20091;-74
2023/01/22 09:21:24;;;;;;;6.80;4.00;;;2.80;99.90;;;;;;5025522;28;20037;-73
2023/01/22 09:23:50;;;;;;;10.02;4.18;;;2.80;99.90;;;;;;5026647;28;20145;-74
2023/01/22 09:26:16;;;;;;;12.35;4.90;;;2.80;99.90;;;;;;5056754;28;20069;-74
2023/01/22 09:28:43;;;;;;;9.68;4.07;;;2.80;99.90;;;;;;5043156;28;20037;-75
2023/01/22 09:31:12;;;;;;;9.13;3.55;;;2.80;99.90;;;;;;5026731;28;20039;-75
2023/01/22 09:33:38;;;;;;;14.35;3.67;;;2.80;99.90;;;;;;5043936;28;20040;-74
2023/01/22 09:36:13;;;;;;;9.55;3.85;;;2.80;99.90;;;;;;5022531;28;20382;-75
2023/01/22 09:38:42;;;;;;;8.38;3.95;;;2.80;99.90;;;;;;5024738;28;20844;-73
2023/01/22 09:41:40;;;;;;;8.30;4.00;;;2.90;99.90;;;;;;5042560;28;20141;-74
2023/01/22 09:44:16;;;;;;;9.63;3.88;;;2.90;99.90;;;;;;5014628;28;20034;-76
2023/01/22 09:46:47;;;;;;;7.40;3.97;;;2.90;99.90;;;;;;5027674;28;20030;-76
2023/01/22 09:49:18;;;;;;;7.85;3.65;;;2.90;99.90;;;;;;5029974;28;20048;-76
2023/01/22 09:51:52;;;;;;;11.52;3.80;;;2.90;99.90;;;;;;5043450;28;20032;-77
2023/01/22 09:54:19;;;;;;;12.18;5.15;;;2.90;99.90;;;;;;5024017;28;20108;-74
2023/01/22 09:56:50;;;;;;;13.70;4.35;;;3.00;99.90;;;;;;5025297;28;20057;-74
2023/01/22 09:59:20;;;;;;;12.38;3.90;;;2.90;99.90;;;;;;5055689;28;20021;-76
2023/01/22 10:01:51;;;;;;;14.20;4.68;;;2.90;99.90;;;;;;5027973;28;20036;-77
2023/01/22 10:04:40;;;;;;;;;;;3.00;99.90;;;;;;5053138;28;20029;-73
2023/01/22 10:07:16;;;;;;;8.25;3.55;;;3.00;99.90;;;;;;5015470;28;20349;-75
2023/01/22 10:09:48;;;;;;;9.57;3.55;;;3.00;99.90;;;;;;5017300;28;20551;-76
2023/01/22 10:12:15;;;;;;;11.15;4.00;;;3.00;99.90;;;;;;5043260;28;20072;-77
2023/01/22 10:14:42;;;;;;;9.43;3.35;;;3.10;99.90;;;;;;5010707;28;20029;-75
2023/01/22 10:17:30;;;;;;;8.48;3.60;;;3.10;99.90;;;;;;5006392;28;20068;-74
2023/01/22 10:20:01;;;;;;;7.20;3.67;;;3.10;99.90;;;;;;4995354;28;20706;-74
2023/01/22 10:22:27;;;;;;;10.50;4.18;;;3.10;99.90;;;;;;5002374;28;20425;-74
2023/01/22 10:24:55;;;;;;;12.13;3.40;;;3.10;99.90;;;;;;5015525;28;20128;-74
2023/01/22 10:27:32;;;;;;;7.93;3.53;;;3.20;99.90;;;;;;5006443;28;20026;-73
2023/01/22 10:30:01;;;;;;;10.10;3.45;;;3.20;99.90;;;;;;5003264;28;20033;-74
2023/01/22 10:32:28;;;;;;;8.82;3.28;;;3.20;99.90;;;;;;5009070;28;20160;-74
2023/01/22 10:35:00;;;;;;;12.38;3.65;;;3.20;99.90;;;;;;5000864;28;20170;-74
2023/01/22 10:37:28;;;;;;;9.20;3.47;;;3.20;99.90;;;;;;4999619;28;20473;-76
2023/01/22 10:39:58;;;;;;;9.07;2.95;;;3.20;99.90;;;;;;5005261;28;20057;-79
2023/01/22 10:42:28;;;;;;;11.85;3.92;;;3.30;99.90;;;;;;5004819;28;20083;-77
2023/01/22 10:45:10;;;;;;;10.88;3.83;;;3.30;99.90;;;;;;5026720;28;20064;-75
2023/01/22 10:47:36;;;;;;;8.88;3.78;;;3.30;99.90;;;;;;5054501;28;20041;-80
2023/01/22 10:50:15;;;;;;;12.68;4.22;;;3.30;99.90;;;;;;5021799;28;20044;-76
2023/01/22 10:52:50;;;;;;;10.13;3.53;;;3.30;99.90;;;;;;5008035;28;20038;-73
2023/01/22 10:55:30;;;;;;;8.93;3.05;;;3.30;99.90;;;;;;5039377;28;20034;-73
2023/01/22 10:58:05;;;;;;;9.77;3.78;;;3.40;99.90;;;;;;5024928;28;20022;-73
2023/01/22 11:00:33;;;;;;;14.50;3.80;;;3.40;99.90;;;;;;5012270;28;20054;-73
2023/01/22 11:03:00;;;;;;;11.18;3.58;;;3.40;99.90;;;;;;5020943;28;20033;-71
2023/01/22 11:05:33;;;;;;;8.90;3.58;;;3.40;99.90;;;;;;5021371;28;20025;-77
2023/01/22 11:08:03;;;;;;;11.70;4.00;;;3.40;99.90;;;;;;5052412;28;20021;-74
2023/01/22 11:10:37;;;;;;;11.90;4.30;;;3.40;99.90;;;;;;5016070;28;20095;-74
2023/01/22 11:13:19;;;;;;;8.80;3.70;;;3.40;99.90;;;;;;5034795;28;20081;-75
2023/01/22 11:16:01;;;;;;;12.30;3.90;;;3.40;99.90;;;;;;5008992;28;20128;-73
2023/01/22 11:18:39;;;;;;;13.55;4.18;;;3.50;99.90;;;;;;5054180;28;20037;-79
2023/01/22 11:21:25;;;;;;;11.85;3.28;;;3.50;99.90;;;;;;5051145;28;20147;-74
2023/01/22 11:23:57;;;;;;;6.60;2.92;;;3.50;99.90;;;;;;5025342;28;20104;-76
2023/01/22 11:26:30;;;;;;;11.52;3.53;;;3.50;99.90;;;;;;5011189;28;20018;-81
2023/01/22 11:29:20;;;;;;;16.25;3.10;;;3.50;99.90;;;;;;5022069;28;20033;-74
2023/01/22 11:32:18;;;;;;;10.85;3.05;;;3.50;99.90;;;;;;5014082;28;20355;-79
2023/01/22 11:35:15;;;;;;;8.02;2.70;;;3.50;99.90;;;;;;5020227;28;20276;-73
2023/01/22 11:37:56;;;;;;;7.40;2.90;;;3.50;99.90;;;;;;5024630;28;20562;-76
2023/01/22 11:40:32;;;;;;;15.93;3.20;;;3.50;99.90;;;;;;5055714;28;20545;-75
2023/01/22 11:43:03;;;;;;;7.50;2.97;;;3.50;99.90;;;;;;5024251;28;20021;-75
2023/01/22 11:45:54;;;;;;;12.57;3.13;;;3.50;99.90;;;;;;5022898;28;20021;-78
2023/01/22 11:48:45;;;;;;;10.63;3.00;;;3.50;99.90;;;;;;5023020;28;20034;-75
2023/01/22 11:51:22;;;;;;;7.63;2.73;;;3.60;99.90;;;;;;5036722;28;20044;-75
2023/01/22 11:54:10;;;;;;;11.93;2.78;;;3.60;99.90;;;;;;5024504;28;20438;-74
2023/01/22 11:56:57;;;;;;;10.25;3.00;;;3.60;99.90;;;;;;5026579;28;20117;-75
2023/01/22 11:59:25;;;;;;;7.68;2.65;;;3.60;99.90;;;;;;5050072;28;20544;-77
2023/01/22 12:02:01;;;;;;;14.40;3.08;;;3.60;99.90;;;;;;5040260;28;20036;-78
2023/01/22 12:04:42;;;;;;;10.73;2.78;;;3.70;99.90;;;;;;5040683;28;20021;-73
2023/01/22 12:07:26;;;;;;;9.25;2.90;;;3.70;99.90;;;;;;5023483;28;20033;-76
2023/01/22 12:10:13;;;;;;;10.85;3.42;;;3.70;99.90;;;;;;5043099;28;20025;-76
2023/01/22 12:13:10;;;;;;;4.85;2.20;;;3.70;99.90;;;;;;5028097;28;20029;-74
2023/01/22 12:15:48;;;;;;;6.93;2.60;;;3.70;99.90;;;;;;5025892;28;20500;-73
2023/01/22 12:18:35;;;;;;;10.75;2.72;;;3.70;99.90;;;;;;5029991;28;20497;-75
2023/01/22 12:21:21;;;;;;;7.00;2.13;;;3.70;99.90;;;;;;5028716;28;20029;-73
2023/01/22 12:24:04;;;;;;;10.05;2.63;;;3.80;99.90;;;;;;5029724;28;20040;-73
2023/01/22 12:26:39;;;;;;;9.98;2.65;;;3.80;99.90;;;;;;5029038;28;20032;-78
2023/01/22 12:29:20;;;;;;;9.30;2.90;;;4.10;99.90;;;;;;5024162;28;20148;-72
2023/01/22 12:31:53;;;;;;;6.22;2.30;;;4.10;99.90;;;;;;5028307;28;20033;-78
2023/01/22 12:34:27;;;;;;;9.40;2.63;;;3.90;99.90;;;;;;5026380;28;20053;-76
2023/01/22 12:36:54;;;;;;;7.43;2.20;;;3.90;99.90;;;;;;5027688;28;20536;-75
2023/01/22 12:39:22;;;;;;;10.85;2.80;;;3.90;99.90;;;;;;5025641;28;20075;-78
2023/01/22 12:42:01;;;;;;;7.35;2.45;;;3.90;99.90;;;;;;5026502;28;20152;-75
2023/01/22 12:44:31;;;;;;;6.82;2.60;;;3.90;99.90;;;;;;5021959;28;20059;-74
2023/01/22 12:47:13;;;;;;;8.52;2.95;;;3.90;99.90;;;;;;5023054;28;20037;-79
2023/01/22 12:49:51;;;;;;;6.47;2.20;;;3.90;99.90;;;;;;5026046;28;20493;-74
2023/01/22 12:52:38;;;;;;;6.75;2.20;;;3.90;99.90;;;;;;5026795;28;20090;-73
2023/01/22 12:55:30;;;;;;;7.15;2.03;;;3.90;99.90;;;;;;5043001;28;20651;-73
2023/01/22 12:57:57;;;;;;;11.80;2.67;;;3.90;99.90;;;;;;5044547;28;20026;-76
2023/01/22 13:00:29;;;;;;;10.40;2.63;;;3.90;99.90;;;;;;5045064;28;20021;-76
2023/01/22 13:02:58;;;;;;;7.78;2.47;;;3.90;99.90;;;;;;5067200;28;20048;-77
2023/01/22 13:05:32;;;;;;;11.35;2.85;;;3.90;99.90;;;;;;5035715;28;20025;-74
2023/01/22 13:08:20;;;;;;;5.28;2.33;;;4.00;99.90;;;;;;5039696;28;20026;-78
2023/01/22 13:11:01;;;;;;;6.50;2.22;;;4.00;99.90;;;;;;5048463;28;20120;-74
2023/01/22 13:13:36;;;;;;;11.73;2.97;;;4.00;99.90;;;;;;5038222;28;20021;-77